Appleton City, Missouri
Current Conditions -  °F | °C
As of 8:35 PM on Saturday 20 Dec 2014 (Local Time) from KGLY Reporting Station
Overcast Overcast  
Wind Chill: 39°   Ceiling: 1900
Heat Index: 43°   Visibility: 9mi
Dew Point: 37°   Wind: 7mph
Humidity: 81%   Direction: 190°S
Pressure: 30.19"   Gusts: NA
Location:  38.19°N, 94.03°W
Report Text: KGLY 210235Z AUTO 19006KT 9SM OVC019 06/03 A3019 RMK AO2
Loading
Personal Weather Stations






























Interactive Weather Map New forecast layout! Learn more

10-Day Weather Forecast

Advertisements
Track Severe Weather on mobile